This is the latest recevied weather packets stored in our database for station/object N3SBK. If no packets are shown the sender has not sent any weather packets the latest 10 day(s).
| Time | Temp. | Humidity | Pressure | Rain* | Wind** | Luminosity | Snow |
|---|---|---|---|---|---|---|---|
| 1787589108 | 18.89° C | 70% | 1008.1 hPa | 0 mm | - | 674 W/m² | - |
| 1787588804 | 20° C | 67% | 1008.1 hPa | 0 mm | - | 70 W/m² | - |
| 1787588500 | 19.44° C | 69% | 1008 hPa | 0 mm | - | 708 W/m² | - |
| 1787588200 | 18.89° C | 70% | 1007.9 hPa | 0 mm | - | 660 W/m² | - |
| 1787587896 | 17.78° C | 75% | 1008.1 hPa | 0 mm | - | 654 W/m² | - |
| 1787587591 | 18.33° C | 73% | 1008.2 hPa | 0 mm | - | 69 W/m² | - |
| 1787587291 | 18.89° C | 69% | 1007.9 hPa | 0 mm | - | 58 W/m² | - |
| 1787586985 | 17.78° C | 71% | 1008 hPa | 0 mm | - | 677 W/m² | - |
| 1787586680 | 17.78° C | 72% | 1007.9 hPa | 0 mm | - | 640 W/m² | - |
| 1787586375 | 18.33° C | 72% | 1008 hPa | 0 mm | - | 104 W/m² | - |
| 1787586071 | 18.33° C | 74% | 1008 hPa | 0 mm | - | 176 W/m² | - |
| 1787585767 | 17.22° C | 80% | 1008 hPa | 0 mm | - | 603 W/m² | - |
| 1787585462 | 17.22° C | 77% | 1008.1 hPa | 0 mm | - | 93 W/m² | - |
| 1787585162 | 16.67° C | 79% | 1007.9 hPa | 0 mm | - | 605 W/m² | - |
| 1787584857 | 16.67° C | 79% | 1008 hPa | 0 mm | - | 50 W/m² | - |
| 1787584556 | 17.22° C | 79% | 1008 hPa | 0 mm | - | 109 W/m² | - |
| 1787584250 | 17.22° C | 79% | 1008 hPa | 0 mm | - | 98 W/m² | - |
| 1787583949 | 17.22° C | 79% | 1008 hPa | 0 mm | - | 125 W/m² | - |
| 1787583645 | 17.22° C | 83% | 1008.1 hPa | 0 mm | - | 138 W/m² | - |
| 1787583344 | 16.67° C | 81% | 1008 hPa | 0 mm | - | 405 W/m² | - |
| 1787583043 | 16.67° C | 84% | 1008 hPa | 0 mm | - | 79 W/m² | - |
| 1787582738 | 16.67° C | 83% | 1008.1 hPa | 0 mm | - | 86 W/m² | - |
| 1787582434 | 16.11° C | 85% | 1007.9 hPa | 0 mm | - | 89 W/m² | - |
| 1787582129 | 16.11° C | 87% | 1007.8 hPa | 0 mm | - | 58 W/m² | - |
| 1787581824 | 15.56° C | 88% | 1007.8 hPa | 0 mm | - | 103 W/m² | - |
* Rain latest hour (hover to see other rain measurements)
** Current wind speed in m/s (hover to see current wind gust speed)